3AL8 weather

Flint River Ranch Airport
Owens Crossroads, Alabama, United States

Public forecast

Using degrees Fahrenheit for public forecast. Weather courtesy of forecast.io.

Closest aviation weather report (METAR) to Flint River Ranch Airport

Closest report is Redstone Army Air Field, 11.3 nm (21.0 km) WNW. Retrieved 2019/10/16 14:58 UTC (51 minutes ago):

KHUA 161458Z AUTO 03009KT 10SM SCT037 15/09 A2995 RMK AO2 SLP140 60000 T01450093

Closest aviation forecast (TAF) to Flint River Ranch Airport

Closest forecast is Huntsville International Carl T Jones Field, 15.3 nm (28.3 km) W. Retrieved 2019/10/16 12:22 UTC (3 hours ago):

TAF KHSV 161120Z 1612/1712 26012KT 6SM BR SCT008 OVC020 TEMPO 1612/1613 4SM -RA BR BKN008 FM161300 33010KT P6SM SCT015 OVC035 FM161600 35010G18KT P6SM SKC FM170000 36004KT P6SM SKC